KCLT/CLT METAR and TAF weather

Enter ICAO airport designator
Station Type Date Time Source
KCLT METAR 2020/12/05 05:52 UTC NOAA

KCLT 050552Z 27006KT 10SM FEW087 11/08 A2986 RMK AO2 RAE19 SLP107 P0002 60061 T01060083 10156 20106 51025


Station Type Date Time Source
KCLT Decoded METAR 2020/12/05 05:52 UTC NOAA

CHARLOTTE/DOUGLAS INTERNATIONAL , NC, United States (KCLT) 35-13N 80-57W 220M
Dec 05, 2020 - 12:52 AM EST / 2020.12.05 0552 UTC
Wind: from the W (270 degrees) at 7 MPH (6 KT):0
Visibility: 10 mile(s):0
Sky conditions: mostly clear
Precipitation last hour: 0.02 inches
Temperature: 51.1 F (10.6 C)
Dew Point: 46.9 F (8.3 C)
Relative Humidity: 85%
Pressure (altimeter): 29.86 in. Hg (1011 hPa)
Pressure tendency: 0.07 inches (2.5 hPa) higher than three hours ago
ob: KCLT 050552Z 27006KT 10SM FEW087 11/08 A2986 RMK AO2 RAE19 SLP107 P0002 60061 T01060083 10156 20106 51025
cycle: 6

Station Type Date Time Source
KCLT TAF 2020/12/05 06:40 UTC NOAA

TAF KCLT 050538Z 0506/0612 26008G17KT P6SM FEW090
FM051200 29006KT P6SM SKC
FM051600 32008KT P6SM FEW250
FM052300 31004KT P6SM SKC

Example: see airport list